Morgans Point, Texas
Current Conditions -  °F | °C
As of 1:50 AM on Saturday 22 Nov 2014 (Local Time) from KEFD Reporting Station
Scattered Clouds Scattered Clouds  
Wind Chill: 63°   Ceiling: Unl
Heat Index: 63°   Visibility: 10mi
Dew Point: 63°   Wind: 9mph
Humidity: 100%   Direction: 100°E
Pressure: 30.13"   Gusts: NA
Location:  29.6785°N, 95.0483°W
Report Text: KEFD 220750Z 10008KT 10SM FEW030 SCT090 17/17 A3013
Loading
Personal Weather Stations






























Interactive Weather Map New forecast layout! Learn more

10-Day Weather Forecast

Advertisements
Track Severe Weather on mobile